createdAt,value
2024-04-09T00:19:03.463Z,99989.25
2024-04-09T00:49:05.975Z,99978.08
2024-04-09T01:19:08.928Z,99962.78
2024-04-09T01:49:11.316Z,99969.70
2024-04-09T02:19:14.087Z,99997.41
2024-04-09T02:49:16.189Z,100007.13
2024-04-09T03:19:18.579Z,100010.03
2024-04-09T03:49:21.077Z,100014.16
2024-04-09T04:19:24.129Z,100008.95
2024-04-09T04:49:26.414Z,99994.88
2024-04-09T05:19:28.476Z,99996.48
2024-04-09T05:49:30.737Z,100002.77
2024-04-09T06:19:33.611Z,99991.13
2024-04-09T06:49:35.979Z,99953.95
2024-04-09T07:19:38.936Z,99943.30
2024-04-09T07:49:40.485Z,99936.95
2024-04-09T08:19:43.030Z,99915.53
2024-04-09T08:49:44.836Z,99933.38
2024-04-09T09:19:47.443Z,99908.27
2024-04-09T09:49:50.633Z,99878.83
2024-04-09T10:19:57.846Z,99843.30
2024-04-09T10:49:59.854Z,99830.58
2024-04-09T11:20:02.035Z,99798.13
2024-04-09T11:50:03.765Z,99769.94
2024-04-09T12:20:05.979Z,99763.80
2024-04-09T12:50:08.278Z,99748.14
2024-04-09T13:20:10.739Z,99721.97
2024-04-09T13:50:12.499Z,99719.46
2024-04-09T14:20:15.690Z,99732.00
2024-04-09T14:50:18.510Z,99746.65
2024-04-09T15:20:20.668Z,99732.80
2024-04-09T15:50:22.940Z,99736.10
2024-04-09T16:20:25.667Z,99738.66
2024-04-09T16:50:27.981Z,99782.58
2024-04-09T17:20:30.415Z,99809.02
2024-04-09T17:50:32.663Z,99835.05
2024-04-09T18:20:35.638Z,99861.53
2024-04-09T18:50:38.144Z,99903.19
2024-04-09T19:20:40.314Z,99971.95
2024-04-09T19:50:42.660Z,100037.36
2024-04-09T20:20:46.051Z,100130.44
2024-04-09T20:50:48.459Z,100202.27
2024-04-09T21:20:50.603Z,100264.61
2024-04-09T21:50:54.136Z,100353.80
2024-04-09T22:20:57.182Z,100392.27
2024-04-09T22:50:58.652Z,100406.80
2024-04-09T23:21:00.960Z,100491.85
2024-04-09T23:51:02.456Z,100528.53
